Strona główna
METAR-TAF:

METAR-TAF

Lotnisko :

Port lotniczy Kecskemét

Kecskemét, Węgry

Szerokość geograficzna: 46-55N, Długość geograficzna: 019-45E, wysokość: 113 m

Aktualna obserwacja pogody

Raport powstał 49 minut temu, godzina 04:45 UTC
Wiatr 4 kt od północny zachód
Temperatura 3°C
Wilgotność 65%
Ciśnienie 1023 hPa
Widzialność 10 km lub więcej
Brak chmur poniżej 1500 m i brak chmur cumulonimbus

METAR: LHKE 090445Z 31004KT CAVOK 03/M03 Q1023 R12/01//95 NOSIG RMK BLU

czas: 07:34 (05:34 UTC)

Prognoza

Raport powstał 3 godziny i 19 minut temu, godzina 02:15 UTC
Prognoza ważna od 09 godzina 03 UTC do 09 godzina 12 UTC
Wiatr 3 kt z kierunków zmiennych
Widzialność 10 km lub więcej
Brak chmur poniżej 1500 m i brak chmur cumulonimbus
Stopniowe zmiany
od 09 godzina 09 UTC do 09 godzina 11 UTC
Wiatr 5 kt od zachód

TAF: LHKE 090215Z 0903/0912 VRB03KT CAVOK BECMG 0909/0911 26005KT

Obserwacja i prognoza pogody dla ponad 4000 lotnisk (raport METAR i TAF).

Dostępne stacje oznaczono żółtymi i czerwonymi punktami na mapie.

Najedź kursorem aby zobaczyć nazwę stacji.

Kliknij aby zobaczyć obserwacje i prognozy pogody.

Aby zmienić mapę: kliknij na zielony przycisk z czarnym krzyżykiem, aby powiększyć; na zielony przycisk z myślnikiem, aby pomniejszyć; na zielone strzałki, aby przejść do map sąsiednich.


METAR-TAF: